Time;durP1;ratioP1;P1;durP2;ratioP2;P2;SDS_P1;SDS_P2;PMS_P1;PMS_P2;Temp;Humidity;BMP_temperature;BMP_pressure;BME280_temperature;BME280_humidity;BME280_pressure;Samples;Min_cycle;Max_cycle;Signal;HPM_P1;HPM_P2
2021/06/13 00:00:28;;;;;;;;;5.25;4.50;;;;;21.58;100.00;102274.94;5077071;27;47056;-61
2021/06/13 00:02:53;;;;;;;;;6.00;4.50;;;;;21.60;100.00;102283.75;5062500;27;45313;-61
2021/06/13 00:05:19;;;;;;;;;8.25;6.00;;;;;21.60;100.00;102277.56;5065544;28;45344;-62
2021/06/13 00:07:45;;;;;;;;;5.00;4.75;;;;;21.58;100.00;102274.09;5057228;28;45387;-60
2021/06/13 00:10:12;;;;;;;;;6.00;6.00;;;;;21.50;100.00;102268.16;5056646;28;46364;-60
2021/06/13 00:12:37;;;;;;;;;4.50;4.50;;;;;21.51;100.00;102272.56;5067775;28;45289;-59
2021/06/13 00:15:06;;;;;;;;;5.00;4.00;;;;;21.43;100.00;102256.88;5076631;27;45678;-60
2021/06/13 00:17:31;;;;;;;;;6.25;6.25;;;;;21.45;100.00;102268.31;5077162;27;45494;-60
2021/06/13 00:19:57;;;;;;;;;5.75;5.50;;;;;21.45;100.00;102270.09;5076622;27;45409;-60
2021/06/13 00:22:22;;;;;;;;;6.75;6.50;;;;;21.38;100.00;102266.81;5076361;27;45501;-60
2021/06/13 00:24:47;;;;;;;;;7.50;6.25;;;;;21.43;100.00;102271.97;5076993;28;45386;-63
2021/06/13 00:27:13;;;;;;;;;7.75;7.00;;;;;21.34;100.00;102255.44;5076067;27;45482;-60
2021/06/13 00:29:38;;;;;;;;;8.25;7.00;;;;;21.25;100.00;102241.56;5059847;28;46465;-60
2021/06/13 00:32:04;;;;;;;;;7.25;6.75;;;;;21.28;100.00;102249.47;5056191;28;45392;-61
2021/06/13 00:34:30;;;;;;;;;6.75;6.25;;;;;21.27;100.00;102251.22;5070639;28;45326;-60
2021/06/13 00:36:55;;;;;;;;;5.50;5.50;;;;;21.27;100.00;102253.00;5070223;28;45493;-62
2021/06/13 00:39:21;;;;;;;;;5.75;5.50;;;;;21.28;100.00;102260.97;5073983;27;47113;-60
2021/06/13 00:41:46;;;;;;;;;4.75;4.75;;;;;21.25;100.00;102260.16;5064994;28;45420;-60
2021/06/13 00:44:12;;;;;;;;;7.00;6.00;;;;;21.21;100.00;102258.50;5062428;27;45341;-60
2021/06/13 00:46:40;;;;;;;;;5.75;5.00;;;;;21.14;100.00;102249.03;5076601;27;45569;-60
2021/06/13 00:49:05;;;;;;;;;7.50;4.75;;;;;21.19;100.00;102258.56;5076204;27;46429;-60
2021/06/13 00:51:31;;;;;;;;;6.25;6.00;;;;;21.17;100.00;102260.41;5076184;27;45261;-61
2021/06/13 00:53:56;;;;;;;;;7.00;6.75;;;;;21.13;100.00;102255.25;5075907;27;45387;-63
2021/06/13 00:56:21;;;;;;;;;7.25;6.25;;;;;21.11;100.00;102252.66;5076617;27;45490;-60
2021/06/13 00:58:48;;;;;;;;;5.00;5.00;;;;;21.14;100.00;102259.66;5076075;27;45548;-61
2021/06/13 01:01:14;;;;;;;;;6.00;6.00;;;;;21.06;100.00;102255.47;5076111;27;45616;-61
2021/06/13 01:03:39;;;;;;;;;6.00;6.00;;;;;21.06;100.00;102255.47;5076239;27;45335;-61
2021/06/13 01:06:05;;;;;;;;;7.25;6.25;;;;;21.02;100.00;102252.94;5076360;27;45243;-60
2021/06/13 01:08:47;;;;;;;;;6.75;6.25;;;;;21.06;100.00;102257.28;5075949;27;46261;-61
2021/06/13 01:11:32;;;;;;;;;6.00;6.00;;;;;20.96;100.00;102251.38;5075738;28;45481;-60
2021/06/13 01:14:12;;;;;;;;;7.00;7.00;;;;;21.01;100.00;102267.16;5069426;28;45458;-61
2021/06/13 01:17:22;;;;;;;;;10.50;7.50;;;;;21.00;100.00;102265.41;5071898;27;45411;-61
2021/06/13 01:19:59;;;;;;;;;9.00;8.50;;;;;20.94;100.00;102261.19;5067349;28;46237;-61
2021/06/13 01:22:51;;;;;;;;;7.00;7.00;;;;;20.93;100.00;102262.09;5068869;28;45441;-61
2021/06/13 01:25:45;;;;;;;;;10.25;8.50;;;;;20.92;100.00;102262.16;5072719;28;45390;-61
2021/06/13 01:28:41;;;;;;;;;9.25;7.00;;;;;20.89;100.00;102265.78;5013820;28;45445;-61
2021/06/13 01:31:07;;;;;;;;;8.00;5.25;;;;;20.86;100.00;102262.38;5013162;28;45749;-60
2021/06/13 01:33:35;;;;;;;;;7.50;6.75;;;;;20.86;100.00;102271.19;5008945;28;45497;-62
2021/06/13 01:36:02;;;;;;;;;6.50;6.00;;;;;20.84;100.00;102272.19;5010471;28;45426;-60
2021/06/13 01:38:29;;;;;;;;;8.50;8.00;;;;;20.84;100.00;102277.50;5013412;28;45528;-61
2021/06/13 01:40:56;;;;;;;;;7.25;6.50;;;;;20.74;100.00;102260.97;5013131;28;46730;-61
2021/06/13 01:43:25;;;;;;;;;7.50;7.00;;;;;20.81;100.00;102275.78;5013080;28;45585;-61
2021/06/13 01:45:54;;;;;;;;;9.25;8.00;;;;;20.80;100.00;102284.66;5012144;28;45509;-61
2021/06/13 01:48:21;;;;;;;;;7.75;7.75;;;;;20.76;100.00;102272.41;5012712;28;45455;-62
2021/06/13 01:50:49;;;;;;;;;8.75;8.50;;;;;20.74;100.00;102282.19;5013163;28;47036;-60
2021/06/13 01:53:16;;;;;;;;;9.25;7.50;;;;;20.65;100.00;102270.09;5012913;28;45821;-60
2021/06/13 01:55:45;;;;;;;;;10.25;8.25;;;;;20.73;100.00;102286.66;5012760;28;45564;-60
2021/06/13 01:58:14;;;;;;;;;5.00;5.00;;;;;20.72;100.00;102281.38;5013383;28;45501;-61
2021/06/13 02:00:42;;;;;;;;;8.75;7.25;;;;;20.68;100.00;102279.75;5013340;28;45785;-60
2021/06/13 02:03:09;;;;;;;;;7.50;7.50;;;;;20.69;100.00;102281.50;5016309;28;45294;-60
2021/06/13 02:05:37;;;;;;;;;7.75;6.50;;;;;20.67;100.00;102286.84;5060086;28;45337;-60
2021/06/13 02:08:03;;;;;;;;;7.75;7.75;;;;;20.65;100.00;102290.47;5078955;27;45413;-60
2021/06/13 02:10:30;;;;;;;;;7.00;6.25;;;;;20.62;100.00;102293.22;5078714;27;46428;-60
2021/06/13 02:12:57;;;;;;;;;6.00;5.50;;;;;20.60;100.00;102292.41;5078751;27;45290;-60
2021/06/13 02:15:24;;;;;;;;;7.75;7.00;;;;;20.59;100.00;102293.28;5064693;27;45399;-60
2021/06/13 02:17:51;;;;;;;;;8.25;7.00;;;;;20.52;100.00;102286.44;5079023;27;45399;-59
2021/06/13 02:20:29;;;;;;;;;7.75;7.00;;;;;20.52;100.00;102294.41;5078510;27;46168;-59
2021/06/13 02:22:54;;;;;;;;;7.50;6.75;;;;;20.42;100.00;102291.19;5077537;28;45415;-60
2021/06/13 02:25:24;;;;;;;;;6.75;6.75;;;;;20.43;100.00;102296.44;5078198;27;45363;-59
2021/06/13 02:27:55;;;;;;;;;8.50;6.75;;;;;20.43;100.00;102293.78;5078694;27;45531;-60
2021/06/13 02:30:23;;;;;;;;;8.50;8.50;;;;;20.40;100.00;102295.63;5078484;27;46971;-60
2021/06/13 02:32:50;;;;;;;;;7.75;7.75;;;;;20.36;100.00;102292.19;5078729;27;45234;-60
2021/06/13 02:35:17;;;;;;;;;6.75;6.00;;;;;20.39;100.00;102297.41;5077998;27;45345;-60
2021/06/13 02:37:44;;;;;;;;;8.00;7.00;;;;;20.35;100.00;102295.75;5078505;27;45386;-60
2021/06/13 02:40:12;;;;;;;;;6.00;6.00;;;;;20.22;100.00;102283.78;5078233;27;46693;-60
2021/06/13 02:42:38;;;;;;;;;7.25;7.00;;;;;20.32;100.00;102301.16;5071727;28;45558;-60
2021/06/13 02:45:12;;;;;;;;;8.00;7.00;;;;;20.29;100.00;102298.59;5072167;28;45316;-60
2021/06/13 02:47:38;;;;;;;;;7.50;7.00;;;;;20.25;100.00;102310.22;5076860;28;45354;-60
2021/06/13 02:50:08;;;;;;;;;7.50;7.00;;;;;20.21;100.00;102305.91;5078017;27;47226;-59
2021/06/13 02:52:46;;;;;;;;;8.00;7.00;;;;;20.20;100.00;102312.13;5077717;27;45667;-59
2021/06/13 02:55:21;;;;;;;;;7.00;7.00;;;;;20.19;100.00;102318.38;5078340;27;45367;-61
2021/06/13 02:57:59;;;;;;;;;8.00;5.50;;;;;20.13;100.00;102307.91;5078641;27;46087;-61
2021/06/13 03:00:25;;;;;;;;;8.75;7.75;;;;;20.13;100.00;102318.50;5078131;27;46486;-59
2021/06/13 03:02:53;;;;;;;;;10.00;7.00;;;;;20.12;100.00;102322.09;5077524;27;45442;-60
2021/06/13 03:05:24;;;;;;;;;6.75;6.25;;;;;20.08;100.00;102323.09;5076939;27;45329;-60
2021/06/13 03:07:51;;;;;;;;;9.00;7.00;;;;;20.01;100.00;102317.09;5077984;27;45572;-60
2021/06/13 03:10:17;;;;;;;;;7.75;7.25;;;;;20.08;100.00;102333.69;5077829;27;45521;-60
2021/06/13 03:12:45;;;;;;;;;7.25;6.50;;;;;20.05;100.00;102344.41;5078105;27;46197;-60
2021/06/13 03:15:11;;;;;;;;;10.25;7.50;;;;;20.02;100.00;102342.69;5078193;27;45336;-61
2021/06/13 03:17:39;;;;;;;;;10.00;8.75;;;;;19.85;100.00;102321.94;5078095;27;45271;-60
2021/06/13 03:20:08;;;;;;;;;8.25;7.50;;;;;20.00;100.00;102355.13;5077428;27;45466;-61
2021/06/13 03:22:34;;;;;;;;;9.25;8.50;;;;;19.98;100.00;102359.63;5077759;27;45619;-60
2021/06/13 03:25:01;;;;;;;;;8.75;8.25;;;;;19.96;100.00;102357.91;5077874;27;45382;-63
2021/06/13 03:27:27;;;;;;;;;10.00;8.00;;;;;19.95;100.00;102358.84;5078219;27;45431;-60
2021/06/13 03:29:53;;;;;;;;;8.25;7.00;;;;;19.92;100.00;102358.91;5077474;27;46344;-61
2021/06/13 03:32:20;;;;;;;;;9.00;9.00;;;;;19.86;100.00;102352.84;5077510;27;45461;-61
2021/06/13 03:34:47;;;;;;;;;8.25;8.00;;;;;19.87;100.00;102362.53;5077791;27;45420;-61
2021/06/13 03:37:14;;;;;;;;;8.00;7.75;;;;;19.83;100.00;102358.25;5076172;28;45337;-61
2021/06/13 03:39:43;;;;;;;;;8.00;7.00;;;;;19.81;100.00;102365.38;5077255;27;46503;-61
2021/06/13 03:42:13;;;;;;;;;7.50;6.25;;;;;19.79;100.00;102364.53;5077502;27;45309;-59
2021/06/13 03:44:40;;;;;;;;;10.50;9.00;;;;;19.73;100.00;102356.75;5077392;27;45402;-61
2021/06/13 03:47:06;;;;;;;;;10.00;9.75;;;;;19.75;100.00;102362.00;5076448;28;45360;-60
2021/06/13 03:49:34;;;;;;;;;8.00;8.00;;;;;19.67;100.00;102348.94;5075765;28;48184;-61
2021/06/13 03:52:00;;;;;;;;;8.75;7.00;;;;;19.71;100.00;102357.72;5077136;27;45561;-60
2021/06/13 03:54:26;;;;;;;;;9.25;9.00;;;;;19.71;100.00;102357.72;5073674;27;45430;-61
2021/06/13 03:57:01;;;;;;;;;9.00;8.75;;;;;19.69;100.00;102354.19;5066773;28;45288;-60
2021/06/13 03:59:28;;;;;;;;;10.50;9.50;;;;;19.69;100.00;102357.75;5076793;27;46438;-63
2021/06/13 04:01:56;;;;;;;;;8.25;7.00;;;;;19.68;100.00;102363.06;5077142;27;45640;-60
2021/06/13 04:04:24;;;;;;;;;8.50;7.50;;;;;19.68;100.00;102363.94;5077236;27;45438;-60
2021/06/13 04:06:50;;;;;;;;;8.25;7.00;;;;;19.60;100.00;102363.28;5077666;27;45339;-60
2021/06/13 04:09:17;;;;;;;;;9.00;8.00;;;;;19.69;100.00;102375.41;5076934;27;46553;-60
2021/06/13 04:11:44;;;;;;;;;9.25;7.00;;;;;19.65;100.00;102361.38;5076942;27;45343;-60
2021/06/13 04:14:11;;;;;;;;;9.75;9.25;;;;;19.60;100.00;102365.94;5077132;27;45400;-60
2021/06/13 04:16:38;;;;;;;;;14.00;10.00;;;;;19.64;100.00;102380.84;5076957;27;45380;-60
2021/06/13 04:19:04;;;;;;;;;8.50;8.00;;;;;19.67;100.00;102382.53;5076809;27;47167;-60
2021/06/13 04:21:30;;;;;;;;;11.50;9.50;;;;;19.62;100.00;102381.78;5076499;27;45702;-60
2021/06/13 04:24:00;;;;;;;;;8.50;7.75;;;;;19.66;100.00;102384.31;5076364;27;45408;-61
2021/06/13 04:26:26;;;;;;;;;9.00;8.75;;;;;19.66;100.00;102397.56;5077195;27;45327;-63
2021/06/13 04:28:52;;;;;;;;;8.50;8.00;;;;;19.63;100.00;102397.63;5076830;27;46181;-60
2021/06/13 04:31:18;;;;;;;;;8.75;8.50;;;;;19.60;100.00;102391.56;5076705;27;45362;-59
2021/06/13 04:33:46;;;;;;;;;8.25;8.00;;;;;19.61;100.00;102395.94;5076656;27;45467;-63
2021/06/13 04:36:14;;;;;;;;;9.25;8.25;;;;;19.63;100.00;102397.63;5076551;27;45834;-60
2021/06/13 04:38:40;;;;;;;;;8.75;7.50;;;;;19.58;100.00;102395.13;5076445;27;46315;-60
2021/06/13 04:41:07;;;;;;;;;9.50;9.00;;;;;19.62;100.00;102395.03;5076398;27;45491;-60
2021/06/13 04:43:34;;;;;;;;;8.25;8.25;;;;;19.50;100.00;102375.88;5076460;28;45407;-60
2021/06/13 04:46:00;;;;;;;;;7.00;7.00;;;;;19.62;100.00;102402.97;5076778;27;45367;-60
2021/06/13 04:48:26;;;;;;;;;8.00;8.00;;;;;19.54;100.00;102388.16;5076364;27;45691;-60
2021/06/13 04:50:53;;;;;;;;;9.75;7.75;;;;;19.63;100.00;102400.28;5076335;27;45419;-60
2021/06/13 04:53:52;;;;;;;;;8.75;8.00;;;;;19.68;100.00;102408.13;5076447;27;45404;-59
2021/06/13 04:56:20;;;;;;;;;7.25;6.50;;;;;19.68;100.00;102409.00;5076476;27;45656;-60
2021/06/13 04:58:46;;;;;;;;;11.50;10.50;;;;;19.69;100.00;102401.91;5076417;27;45725;-59
2021/06/13 05:01:11;;;;;;;;;10.00;9.00;;;;;19.68;100.00;102414.28;5074823;28;45372;-59
2021/06/13 05:03:36;;;;;;;;;9.00;9.00;;;;;19.66;100.00;102407.28;5075066;28;45431;-59
2021/06/13 05:06:02;;;;;;;;;10.75;9.25;;;;;19.76;100.00;102412.34;5076421;27;45378;-60
2021/06/13 05:08:28;;;;;;;;;12.00;10.25;;;;;19.73;100.00;102408.91;5066804;28;45443;-60
2021/06/13 05:10:54;;;;;;;;;9.50;9.50;;;;;19.77;100.00;102402.59;5076329;27;45665;-60
2021/06/13 05:13:20;;;;;;;;;11.50;10.50;;;;;19.81;100.00;102414.84;5076235;27;45502;-62
2021/06/13 05:15:45;;;;;;;;;12.00;10.00;;;;;19.80;100.00;102415.78;5076515;27;45371;-60
2021/06/13 05:18:11;;;;;;;;;12.00;11.00;;;;;19.84;100.00;102415.66;5075972;27;46563;-60
2021/06/13 05:20:37;;;;;;;;;8.00;8.00;;;;;19.83;100.00;102413.91;5075948;27;45417;-59
2021/06/13 05:23:05;;;;;;;;;10.25;8.75;;;;;19.88;100.00;102427.03;5075483;27;45717;-60
2021/06/13 05:25:34;;;;;;;;;9.50;9.00;;;;;19.85;100.00;102425.34;5076046;27;45585;-60
2021/06/13 05:28:01;;;;;;;;;9.50;8.75;;;;;19.92;100.00;102431.38;5075803;27;46277;-60
2021/06/13 05:30:28;;;;;;;;;7.75;7.75;;;;;19.92;100.00;102426.06;5075884;27;45280;-58
2021/06/13 05:32:55;;;;;;;;;8.50;8.25;;;;;19.96;100.00;102421.56;5076149;27;45398;-59
2021/06/13 05:35:21;;;;;;;;;7.00;7.00;;;;;20.03;100.00;102429.28;5076369;28;45357;-59
2021/06/13 05:37:47;;;;;;;;;9.00;9.00;;;;;20.04;100.00;102419.56;5079323;27;46699;-59
2021/06/13 05:40:14;;;;;;;;;8.25;7.75;;;;;20.11;100.00;102429.06;5078996;27;45367;-61
2021/06/13 05:42:40;;;;;;;;;9.50;9.25;;;;;20.15;100.00;102431.63;5079215;27;45443;-60
2021/06/13 05:45:07;;;;;;;;;8.75;7.75;;;;;20.18;100.00;102431.53;5079263;27;45305;-60
2021/06/13 05:47:34;;;;;;;;;8.75;8.25;;;;;20.21;100.00;102441.19;5079288;27;47142;-59
2021/06/13 05:49:59;;;;;;;;;8.50;7.50;;;;;20.21;100.00;102433.22;5079231;27;45690;-60
2021/06/13 05:52:24;;;;;;;;;10.00;9.75;;;;;20.24;100.00;102429.63;5079132;27;46084;-59
2021/06/13 05:54:51;;;;;;;;;9.25;8.50;;;;;20.28;100.00;102429.50;5078821;27;45460;-59
2021/06/13 05:57:17;;;;;;;;;7.50;7.50;;;;;20.33;100.00;102432.88;5078967;27;47316;-59
2021/06/13 05:59:42;;;;;;;;;9.00;7.25;;;;;20.34;100.00;102433.75;5078618;27;45742;-60
2021/06/13 06:02:08;;;;;;;;;7.75;7.75;;;;;20.29;100.00;102425.91;5079414;27;45476;-60
2021/06/13 06:04:33;;;;;;;;;10.00;8.00;;;;;20.34;100.00;102425.78;5077717;28;45509;-61
2021/06/13 06:06:58;;;;;;;;;8.25;8.00;;;;;20.42;100.00;102431.81;5078765;27;45366;-60
2021/06/13 06:09:24;;;;;;;;;9.00;7.25;;;;;20.47;100.00;102440.50;5077819;27;45476;-60
2021/06/13 06:11:49;;;;;;;;;8.75;8.00;;;;;20.51;100.00;102441.28;5078296;27;45293;-60
2021/06/13 06:14:15;;;;;;;;;10.25;9.00;;;;;20.54;100.00;102447.38;5079000;27;45306;-60
2021/06/13 06:16:40;;;;;;;;;7.00;6.50;;;;;20.55;100.00;102440.25;5078315;27;45552;-60
2021/06/13 06:19:06;;;;;;;;;9.25;8.00;;;;;20.63;100.00;102446.25;5068100;27;45187;-60
2021/06/13 06:21:31;;;;;;;;;7.00;7.00;;;;;20.69;100.00;102448.72;5077753;27;45764;-60
2021/06/13 06:23:57;;;;;;;;;8.75;7.25;;;;;20.74;100.00;102452.09;5078994;27;45582;-60
2021/06/13 06:26:22;;;;;;;;;7.75;6.25;;;;;20.77;100.00;102444.03;5078545;27;46403;-63
2021/06/13 06:28:48;;;;;;;;;9.00;7.50;;;;;20.82;100.00;102447.44;5078665;27;45403;-61
2021/06/13 06:31:13;;;;;;;;;5.75;5.75;;;;;20.84;100.00;102444.75;5078813;27;45299;-62
2021/06/13 06:33:39;;;;;;;;;8.25;7.00;;;;;20.92;100.00;102456.88;5063212;28;45262;-63
2021/06/13 06:36:05;;;;;;;;;5.50;5.50;;;;;20.88;100.00;102449.91;5078097;27;46865;-61
2021/06/13 06:38:31;;;;;;;;;7.75;6.75;;;;;21.02;100.00;102470.72;5078123;27;45691;-60
2021/06/13 06:41:00;;;;;;;;;7.50;6.00;;;;;21.00;100.00;102461.94;5078727;27;45405;-61
2021/06/13 06:43:26;;;;;;;;;6.75;6.25;;;;;21.00;100.00;102460.16;5078591;27;45347;-61
2021/06/13 06:45:51;;;;;;;;;7.75;7.75;;;;;21.05;100.00;102466.22;5077903;27;46461;-61
2021/06/13 06:48:17;;;;;;;;;10.75;9.25;;;;;21.07;100.00;102467.03;5078039;27;45445;-61
2021/06/13 06:50:43;;;;;;;;;5.00;5.00;;;;;21.15;100.00;102471.25;5077999;27;45718;-60
2021/06/13 06:53:08;;;;;;;;;6.25;5.75;;;;;21.16;100.00;102467.66;5078225;27;45188;-61
2021/06/13 06:55:34;;;;;;;;;5.00;4.75;;;;;21.08;100.00;102449.31;5077940;27;46060;-60
2021/06/13 06:57:59;;;;;;;;;6.75;6.75;;;;;21.25;100.00;102468.25;5090475;27;45718;-61
2021/06/13 07:00:25;;;;;;;;;6.25;6.00;;;;;21.31;100.00;102472.53;5068640;27;45853;-60
2021/06/13 07:02:50;;;;;;;;;4.25;4.25;;;;;21.34;100.00;102462.69;5078178;27;45520;-64
2021/06/13 07:05:16;;;;;;;;;5.75;5.50;;;;;21.38;100.00;102466.09;5078037;27;45492;-60
2021/06/13 07:07:42;;;;;;;;;7.00;6.00;;;;;21.42;100.00;102473.06;5077337;27;45386;-61
2021/06/13 07:10:09;;;;;;;;;8.00;6.50;;;;;21.40;100.00;102461.59;5076690;27;45923;-67
2021/06/13 07:12:34;;;;;;;;;5.75;5.75;;;;;21.44;100.00;102468.56;5079022;27;45423;-63
2021/06/13 07:15:00;;;;;;;;;5.00;5.00;;;;;21.48;100.00;102472.84;5077680;27;45441;-63
2021/06/13 07:17:26;;;;;;;;;6.00;6.00;;;;;21.53;100.00;102470.06;5076301;27;45460;-65
2021/06/13 07:19:52;;;;;;;;;5.50;5.00;;;;;21.56;100.00;102472.63;5076282;28;45494;-62
2021/06/13 07:22:17;;;;;;;;;5.75;5.50;;;;;21.51;100.00;102463.94;5078126;27;45389;-63
2021/06/13 07:24:43;;;;;;;;;5.25;5.25;;;;;21.61;100.00;102476.88;5077232;27;45440;-63
2021/06/13 07:27:09;;;;;;;;;5.75;4.75;;;;;21.65;100.00;102482.94;5077759;27;45342;-63
2021/06/13 07:29:35;;;;;;;;;3.75;3.75;;;;;21.66;100.00;102477.56;5070857;28;45545;-61
2021/06/13 07:32:00;;;;;;;;;6.00;5.25;;;;;21.72;100.00;102479.16;5076467;28;45786;-62
2021/06/13 07:34:25;;;;;;;;;4.75;4.25;;;;;21.78;100.00;102478.09;5077416;27;46285;-62
2021/06/13 07:36:51;;;;;;;;;4.75;4.75;;;;;21.83;100.00;102481.47;5077394;27;45388;-62
2021/06/13 07:39:16;;;;;;;;;5.50;4.75;;;;;21.89;100.00;102484.78;5077421;28;45432;-62
2021/06/13 07:41:42;;;;;;;;;7.00;4.75;;;;;21.92;100.00;102474.03;5077327;27;45446;-62
2021/06/13 07:44:07;;;;;;;;;6.00;5.75;;;;;21.97;100.00;102480.09;5077036;27;46154;-63
2021/06/13 07:46:36;;;;;;;;;5.75;5.25;;;;;22.05;100.00;102476.34;5072779;27;45452;-61
2021/06/13 07:49:02;;;;;;;;;6.50;5.75;;;;;22.12;100.00;102475.19;5076840;27;45458;-62
2021/06/13 07:51:28;;;;;;;;;5.25;5.00;;;;;22.16;100.00;102476.81;5074440;27;45651;-63
2021/06/13 07:53:54;;;;;;;;;6.25;5.50;;;;;22.19;100.00;102466.97;5072475;28;48216;-62
2021/06/13 07:56:19;;;;;;;;;3.75;3.75;;;;;22.18;100.00;102454.59;5075908;27;45509;-62
2021/06/13 07:58:45;;;;;;;;;7.25;6.00;;;;;22.24;100.00;102462.34;5065083;27;45421;-63
2021/06/13 08:01:10;;;;;;;;;5.25;5.00;;;;;22.31;100.00;102463.84;5073269;28;45450;-63
2021/06/13 08:03:39;;;;;;;;;7.00;5.50;;;;;22.38;100.00;102468.94;5076098;27;45566;-62
2021/06/13 08:06:05;;;;;;;;;5.75;5.75;;;;;22.44;100.00;102479.38;5076531;27;45510;-61
2021/06/13 08:08:31;;;;;;;;;4.50;4.50;;;;;22.44;100.00;102468.75;5068765;27;45422;-62
2021/06/13 08:10:56;;;;;;;;;6.75;5.00;;;;;22.47;100.00;102461.50;5070133;28;45396;-60
2021/06/13 08:13:21;;;;;;;;;5.50;5.00;;;;;22.49;100.00;102457.00;5076142;27;47028;-61
2021/06/13 08:15:47;;;;;;;;;5.50;5.00;;;;;22.57;100.00;102451.38;5076331;27;45215;-62
2021/06/13 08:18:13;;;;;;;;;5.00;4.00;;;;;22.61;100.00;102453.88;5076066;27;45794;-62
2021/06/13 08:20:39;;;;;;;;;6.50;6.00;;;;;22.63;100.00;102459.13;5075518;28;45577;-61
2021/06/13 08:23:05;;;;;;;;;6.75;6.25;;;;;22.70;100.00;102465.13;5075767;27;45593;-64
2021/06/13 08:25:30;;;;;;;;;7.25;4.25;;;;;22.76;100.00;102467.53;5068634;27;45538;-62
2021/06/13 08:27:56;;;;;;;;;4.25;4.25;;;;;22.80;100.00;102462.03;5083506;27;45868;-62
2021/06/13 08:30:22;;;;;;;;;4.25;4.25;;;;;22.88;100.00;102461.81;5079707;27;45426;-60
2021/06/13 08:32:47;;;;;;;;;4.25;4.00;;;;;22.90;100.00;102455.47;5078279;27;45568;-62
2021/06/13 08:35:14;;;;;;;;;5.25;4.50;;;;;22.98;100.00;102464.97;5093844;27;45855;-61
2021/06/13 08:37:39;;;;;;;;;3.25;3.00;;;;;23.05;100.00;102462.00;5080638;27;45763;-62
2021/06/13 08:40:08;;;;;;;;;5.00;4.00;;;;;23.16;100.00;102464.25;5080315;27;45440;-61
2021/06/13 08:42:33;;;;;;;;;3.00;3.00;;;;;23.32;100.00;102467.19;5079033;27;46570;-62
2021/06/13 08:44:59;;;;;;;;;5.00;3.50;;;;;23.44;100.00;102456.88;5078893;27;45485;-62
2021/06/13 08:47:25;;;;;;;;;5.25;5.00;;;;;23.52;100.00;102444.09;5080973;27;46565;-64
2021/06/13 08:49:51;;;;;;;;;4.25;4.25;;;;;23.69;100.00;102461.22;5081448;27;46027;-66
2021/06/13 08:52:16;;;;;;;;;4.00;4.00;;;;;23.77;100.00;102451.13;5079842;27;46426;-64
2021/06/13 08:54:42;;;;;;;;;3.25;3.25;;;;;23.85;100.00;102446.31;5079963;27;45489;-63
2021/06/13 08:57:09;;;;;;;;;4.50;4.00;;;;;23.94;100.00;102461.94;5078620;27;45387;-61
2021/06/13 08:59:36;;;;;;;;;4.00;4.00;;;;;24.02;100.00;102451.81;5074637;27;45425;-61
2021/06/13 09:02:04;;;;;;;;;7.00;5.75;;;;;24.19;100.00;102447.50;5071039;28;47153;-62
2021/06/13 09:04:30;;;;;;;;;7.25;5.75;;;;;24.37;100.00;102438.72;5073972;28;45409;-61
2021/06/13 09:06:55;;;;;;;;;7.25;6.75;;;;;24.53;100.00;102441.59;5070245;27;45434;-62
2021/06/13 10:09:20;;;;;;;;;6.75;4.75;;;;;30.91;80.43;102409.91;5187612;23;47289;-68
2021/06/13 10:11:48;;;;;;;;;6.75;4.25;;;;;31.74;80.24;102415.41;4902465;28;45320;-63
2021/06/13 10:14:18;;;;;;;;;5.00;5.00;;;;;32.97;74.29;102419.03;4902996;28;45491;-63
2021/06/13 10:16:54;;;;;;;;;5.25;4.50;;;;;34.34;71.50;102420.84;4891937;29;45499;-64
2021/06/13 10:19:26;;;;;;;;;5.75;4.75;;;;;35.59;68.23;102401.25;4912242;28;45649;-64
2021/06/13 10:22:01;;;;;;;;;3.00;3.00;;;;;36.58;65.66;102398.09;4902354;28;45424;-71
2021/06/13 10:24:29;;;;;;;;;3.25;3.00;;;;;36.65;60.95;102402.75;4900858;29;45523;-67
2021/06/13 10:27:04;;;;;;;;;4.75;4.00;;;;;35.81;62.22;102405.50;4887541;28;47423;-63
2021/06/13 10:29:33;;;;;;;;;4.00;3.00;;;;;34.90;62.94;102406.78;4902369;28;45746;-64
2021/06/13 10:32:00;;;;;;;;;3.75;3.75;;;;;34.13;62.65;102402.84;4884884;28;45494;-63
2021/06/13 10:34:28;;;;;;;;;4.00;4.00;;;;;33.68;65.71;102386.88;4901993;28;45718;-64
2021/06/13 10:36:55;;;;;;;;;6.25;4.75;;;;;33.99;65.95;102396.81;4901340;28;45473;-64
2021/06/13 10:39:23;;;;;;;;;5.00;4.00;;;;;34.97;64.04;102399.78;4884574;29;45439;-64
2021/06/13 10:41:50;;;;;;;;;3.00;3.00;;;;;35.84;60.94;102407.09;4884821;29;45290;-63
2021/06/13 10:44:19;;;;;;;;;4.25;3.25;;;;;36.07;59.88;102394.84;4884624;29;45599;-69
2021/06/13 10:46:50;;;;;;;;;4.50;4.00;;;;;36.83;59.21;102394.66;4913063;28;46448;-65
2021/06/13 10:49:36;;;;;;;;;3.50;3.00;;;;;37.65;56.47;102394.44;4902684;28;45903;-65
2021/06/13 10:52:13;;;;;;;;;5.75;5.00;;;;;38.16;53.84;102395.44;4901742;28;45440;-65
2021/06/13 10:54:46;;;;;;;;;4.25;4.00;;;;;38.69;53.31;102394.34;4889423;28;45379;-64
2021/06/13 10:57:11;;;;;;;;;4.25;4.00;;;;;38.97;52.15;102392.22;4901392;28;46352;-65
2021/06/13 10:59:39;;;;;;;;;5.25;4.50;;;;;39.18;50.99;102375.34;4888088;28;45435;-65
2021/06/13 11:02:14;;;;;;;;;4.00;4.00;;;;;39.52;51.11;102382.53;4901480;28;45470;-65
2021/06/13 11:04:51;;;;;;;;;4.00;4.00;;;;;39.86;50.23;102379.59;4901350;28;45408;-65
2021/06/13 11:07:29;;;;;;;;;4.00;4.00;;;;;40.08;48.52;102376.13;4900911;29;46250;-65
2021/06/13 11:10:10;;;;;;;;;3.00;3.00;;;;;40.59;48.09;102374.72;4888687;28;45489;-68
2021/06/13 11:12:49;;;;;;;;;4.00;3.75;;;;;40.87;45.55;102374.22;4901247;28;45480;-66
2021/06/13 11:15:36;;;;;;;;;4.00;3.50;;;;;40.80;44.59;102368.59;4901648;29;45279;-65
2021/06/13 11:18:01;;;;;;;;;4.25;3.50;;;;;40.16;43.91;102372.50;4903082;28;46372;-65
2021/06/13 11:20:44;;;;;;;;;4.00;4.00;;;;;39.36;44.47;102375.16;4912044;28;45390;-66
2021/06/13 11:23:15;;;;;;;;;3.00;3.00;;;;;38.35;45.23;102372.56;4901044;28;45374;-72
2021/06/13 11:25:41;;;;;;;;;3.00;3.00;;;;;37.67;46.76;102367.00;4901426;29;45463;-66
2021/06/13 11:28:27;;;;;;;;;3.00;2.75;;;;;37.23;49.61;102358.81;4900723;29;45480;-66
2021/06/13 11:30:55;;;;;;;;;3.00;3.00;;;;;36.95;49.06;102352.59;4883759;29;45521;-65
2021/06/13 11:33:43;;;;;;;;;2.75;2.75;;;;;36.69;47.84;102359.78;4913034;28;45270;-66
2021/06/13 11:36:18;;;;;;;;;3.50;2.00;;;;;36.46;49.12;102357.50;4901139;28;45353;-66
2021/06/13 11:39:01;;;;;;;;;2.50;2.00;;;;;36.43;47.42;102351.47;4900373;28;46469;-66
2021/06/13 11:41:30;;;;;;;;;2.25;2.25;;;;;36.64;48.69;102352.06;4900897;29;45454;-65
2021/06/13 11:43:57;;;;;;;;;2.75;2.50;;;;;37.03;48.30;102349.09;4900534;29;45449;-65
2021/06/13 11:46:38;;;;;;;;;3.50;3.00;;;;;37.38;43.95;102342.78;4900798;29;45297;-65
2021/06/13 11:49:06;;;;;;;;;4.25;3.25;;;;;37.52;43.79;102344.91;4900526;29;46724;-66
2021/06/13 11:51:50;;;;;;;;;2.75;2.25;;;;;37.68;46.27;102330.53;4900592;29;45537;-66
2021/06/13 11:54:37;;;;;;;;;2.00;2.00;;;;;37.96;45.37;102337.53;4900493;28;45379;-67
2021/06/13 11:57:26;;;;;;;;;7.75;7.50;;;;;38.12;45.24;102341.38;4900804;28;45374;-65
2021/06/13 11:59:52;;;;;;;;;17.00;14.50;;;;;38.22;44.21;102332.06;4900204;28;46356;-65
2021/06/13 12:02:19;;;;;;;;;8.25;7.00;;;;;38.37;45.45;102331.44;4900306;28;45332;-64
2021/06/13 12:04:46;;;;;;;;;3.50;2.00;;;;;38.48;42.89;102329.28;4900536;29;45658;-65
2021/06/13 12:07:15;;;;;;;;;3.25;2.25;;;;;38.53;42.12;102321.44;4900452;28;45807;-65
2021/06/13 12:09:41;;;;;;;;;3.00;2.00;;;;;38.45;40.99;102304.16;4900141;28;46362;-65
2021/06/13 12:12:08;;;;;;;;;2.00;2.00;;;;;38.57;42.34;102320.06;4900400;29;45504;-65
2021/06/13 12:14:39;;;;;;;;;1.25;1.25;;;;;38.69;41.88;102312.41;4900593;28;45441;-65
2021/06/13 12:17:10;;;;;;;;;3.25;3.00;;;;;38.80;42.03;102308.53;4900509;29;45352;-69
2021/06/13 12:19:52;;;;;;;;;3.25;3.00;;;;;38.85;40.27;102297.94;4899705;28;46946;-66
2021/06/13 12:22:33;;;;;;;;;2.00;2.00;;;;;38.90;41.29;102296.41;4900317;28;45408;-65